Time;durP1;ratioP1;P1;durP2;ratioP2;P2;SDS_P1;SDS_P2;PMS_P1;PMS_P2;Temp;Humidity;BMP_temperature;BMP_pressure;BME280_temperature;BME280_humidity;BME280_pressure;Samples;Min_cycle;Max_cycle;Signal;HPM_P1;HPM_P2
2023/11/04 07:06:14;;;;;;;27.20;13.90;;;;;;;19.99;100.00;99624.98;106247;1253;74621;-84
2023/11/04 07:08:42;;;;;;;29.90;15.80;;;;;;;20.06;100.00;99623.23;106189;1258;68367;-86
2023/11/04 07:11:14;;;;;;;26.70;14.30;;;;;;;20.13;100.00;99619.89;106158;1260;71815;-83
2023/11/04 07:13:42;;;;;;;24.80;14.40;;;;;;;20.31;100.00;99615.04;106720;1256;61721;-87
2023/11/04 07:16:16;;;;;;;26.70;14.60;;;;;;;20.47;100.00;99607.98;106033;1259;61337;-83
2023/11/04 07:18:57;;;;;;;27.00;15.40;;;;;;;20.35;100.00;99609.02;106155;1259;73467;-84
2023/11/04 07:21:37;;;;;;;27.60;14.70;;;;;;;20.31;100.00;99605.03;106036;1253;69463;-87
2023/11/04 07:24:11;;;;;;;25.70;14.60;;;;;;;20.28;100.00;99596.95;106941;1259;70723;-84
2023/11/04 07:26:46;;;;;;;28.00;16.20;;;;;;;20.25;100.00;99599.92;106091;1256;61251;-84
2023/11/04 07:29:20;;;;;;;26.50;15.80;;;;;;;20.36;100.00;99594.59;106204;1260;61321;-84
2023/11/04 07:31:48;;;;;;;28.10;16.10;;;;;;;20.21;100.00;99603.17;106125;1254;76365;-84
2023/11/04 07:34:22;;;;;;;28.60;16.70;;;;;;;20.15;100.00;99608.13;106751;1253;67588;-86
2023/11/04 07:36:56;;;;;;;29.20;16.70;;;;;;;20.21;100.00;99610.53;106182;1256;71463;-84
2023/11/04 07:39:46;;;;;;;33.50;18.00;;;;;;;20.18;100.00;99610.65;106096;1253;62526;-87
2023/11/04 07:42:20;;;;;;;36.20;20.10;;;;;;;20.13;100.00;99610.30;106328;1256;61116;-87
2023/11/04 07:44:54;;;;;;;42.80;21.30;;;;;;;20.15;100.00;99611.77;106868;1253;75034;-84
2023/11/04 07:47:33;;;;;;;47.70;23.50;;;;;;;20.16;100.00;99611.48;106346;1258;67574;-88
2023/11/04 07:50:01;;;;;;;49.40;25.50;;;;;;;20.34;100.00;99610.48;106120;1258;71481;-83
2023/11/04 07:52:29;;;;;;;37.00;19.70;;;;;;;20.46;100.00;99613.98;106131;1254;62262;-84
2023/11/04 07:54:58;;;;;;;35.50;19.30;;;;;;;20.49;100.00;99609.98;107162;1256;61300;-83
2023/11/04 07:57:34;;;;;;;39.40;22.20;;;;;;;20.63;100.00;99605.84;106308;1259;74653;-83
2023/11/04 08:00:10;;;;;;;47.20;22.70;;;;;;;20.62;100.00;99608.20;106103;1260;67725;-83
2023/11/04 08:02:44;;;;;;;38.30;21.10;;;;;;;20.60;100.00;99608.15;106145;1259;71121;-86
2023/11/04 08:05:14;;;;;;;39.60;21.90;;;;;;;20.58;100.00;99612.34;107076;1258;61277;-85
2023/11/04 08:07:42;;;;;;;54.80;24.70;;;;;;;20.70;100.00;99613.84;106208;1259;61082;-87
2023/11/04 08:10:10;;;;;;;45.10;23.20;;;;;;;20.79;100.00;99615.83;106123;1255;73437;-86
2023/11/04 08:12:41;;;;;;;36.90;20.50;;;;;;;20.85;100.00;99612.13;106225;1259;67187;-84
2023/11/04 08:15:12;;;;;;;29.10;16.90;;;;;;;20.90;100.00;99609.44;106398;1257;73193;-86
2023/11/04 08:17:39;;;;;;;28.20;16.50;;;;;;;20.79;100.00;99613.20;106896;1254;61991;-85
2023/11/04 08:20:09;;;;;;;27.60;14.70;;;;;;;20.75;100.00;99617.66;106076;1257;61324;-83
2023/11/04 08:22:47;;;;;;;26.20;14.20;;;;;;;20.79;100.00;99617.10;106151;1259;74710;-84
2023/11/04 08:25:22;;;;;;;30.80;15.00;;;;;;;20.86;100.00;99617.69;107025;1254;68767;-85
2023/11/04 08:27:58;;;;;;;27.90;16.50;;;;;;;20.76;100.00;99623.06;106474;1256;71324;-86
2023/11/04 08:30:43;;;;;;;29.10;16.20;;;;;;;20.72;100.00;99622.67;106414;1259;61368;-85
2023/11/04 08:33:12;;;;;;;34.60;16.50;;;;;;;20.74;100.00;99615.56;106207;1260;61131;-86
2023/11/04 08:35:46;;;;;;;30.60;15.80;;;;;;;20.73;100.00;99605.09;106781;1256;74710;-84
2023/11/04 08:38:14;;;;;;;32.70;15.80;;;;;;;20.66;100.00;99596.63;106263;1259;67573;-87
2023/11/04 08:40:50;;;;;;;28.10;15.30;;;;;;;20.72;100.00;99598.98;106250;1257;72490;-86
2023/11/04 08:43:18;;;;;;;30.90;15.90;;;;;;;20.74;100.00;99600.35;106796;1254;61830;-87
2023/11/04 08:45:46;;;;;;;31.00;16.10;;;;;;;20.68;100.00;99597.60;107372;1253;61145;-87
2023/11/04 08:48:14;;;;;;;28.80;17.10;;;;;;;20.73;100.00;99597.08;106285;1259;73410;-86
2023/11/04 08:50:42;;;;;;;28.10;16.50;;;;;;;20.70;100.00;99598.21;106114;1260;67124;-86
2023/11/04 08:53:09;;;;;;;27.20;15.60;;;;;;;20.61;100.00;99594.95;106096;1260;72626;-86
2023/11/04 08:55:39;;;;;;;29.90;17.20;;;;;;;20.61;100.00;99593.27;106828;1256;61832;-85
2023/11/04 08:58:13;;;;;;;30.40;16.20;;;;;;;20.62;100.00;99592.52;106256;1266;61270;-86
2023/11/04 09:00:44;;;;;;;29.00;16.70;;;;;;;20.79;100.00;99588.29;106348;1254;74787;-85
2023/11/04 09:03:17;;;;;;;32.60;15.80;;;;;;;21.00;100.00;99589.22;106236;1254;68715;-86
2023/11/04 09:05:57;;;;;;;31.90;16.20;;;;;;;21.06;100.00;99592.48;106916;1254;72718;-84
2023/11/04 09:08:27;;;;;;;30.60;15.70;;;;;;;21.14;100.00;99589.45;106138;1259;61349;-84
2023/11/04 09:10:55;;;;;;;30.60;16.60;;;;;;;21.08;100.00;99594.61;106124;1254;61398;-84
2023/11/04 09:13:28;;;;;;;28.60;14.60;;;;;;;21.12;100.00;99588.55;106242;1260;74673;-84
2023/11/04 09:16:02;;;;;;;24.00;13.10;;;;;;;21.06;100.00;99588.61;106844;1253;67251;-84
2023/11/04 09:18:40;;;;;;;18.80;10.80;;;;;;;21.13;100.00;99589.91;106422;1255;71428;-84
2023/11/04 09:21:16;;;;;;;21.80;10.70;;;;;;;21.25;100.00;99591.71;106203;1259;61254;-85
2023/11/04 09:23:51;;;;;;;21.30;11.10;;;;;;;21.39;100.00;99592.17;106247;1254;61210;-84
2023/11/04 09:26:25;;;;;;;32.00;15.30;;;;;;;21.51;100.00;99597.36;106612;1253;73561;-85
2023/11/04 09:28:59;;;;;;;29.10;15.60;;;;;;;21.51;100.00;99599.12;106367;1258;67237;-85
2023/11/04 09:31:27;;;;;;;26.60;13.30;;;;;;;21.55;100.00;99589.02;106230;1259;71882;-85
2023/11/04 09:33:55;;;;;;;25.80;14.10;;;;;;;21.48;100.00;99577.25;106159;1257;61677;-84
2023/11/04 09:36:29;;;;;;;21.90;13.00;;;;;;;21.68;100.00;99572.37;106578;1267;61244;-86
2023/11/04 09:38:58;;;;;;;36.20;15.90;;;;;;;21.77;100.00;99560.89;106102;1254;74640;-87
2023/11/04 09:41:25;;;;;;;23.40;13.60;;;;;;;21.87;100.00;99557.22;106239;1259;67813;-87
2023/11/04 09:43:57;;;;;;;24.20;15.10;;;;;;;21.78;100.00;99557.17;106169;1260;72056;-86
2023/11/04 09:46:43;;;;;;;29.70;16.40;;;;;;;21.62;100.00;99545.98;106896;1254;61983;-87
2023/11/04 09:49:11;;;;;;;29.40;15.60;;;;;;;21.42;100.00;99543.88;106015;1254;61407;-87
2023/11/04 09:51:42;;;;;;;27.40;15.30;;;;;;;21.34;100.00;99536.83;106082;1253;74614;-87
2023/11/04 09:54:12;;;;;;;29.10;16.00;;;;;;;21.30;100.00;99533.44;106360;1257;68722;-88
2023/11/04 09:56:45;;;;;;;30.20;16.40;;;;;;;21.33;100.00;99522.28;107198;1260;72772;-88
2023/11/04 09:59:17;;;;;;;29.70;16.40;;;;;;;21.25;100.00;99513.43;106215;1258;61212;-88
2023/11/04 10:01:49;;;;;;;27.80;15.30;;;;;;;21.06;100.00;99508.46;106172;1254;61280;-88
2023/11/04 10:04:24;;;;;;;31.20;17.40;;;;;;;21.01;100.00;99504.34;106430;1254;74687;-87
2023/11/04 10:06:53;;;;;;;27.80;16.50;;;;;;;20.96;100.00;99504.74;106943;1254;68828;-88
2023/11/04 10:09:27;;;;;;;27.80;16.30;;;;;;;20.95;100.00;99497.02;106285;1254;72647;-88
2023/11/04 10:12:05;;;;;;;28.90;16.00;;;;;;;21.07;100.00;99499.27;106257;1254;61606;-88
2023/11/04 10:14:36;;;;;;;31.60;17.50;;;;;;;21.16;100.00;99496.71;106230;1258;61199;-88
2023/11/04 10:17:08;;;;;;;29.90;17.70;;;;;;;21.29;100.00;99497.99;106399;1259;76629;-87
2023/11/04 10:19:40;;;;;;;;;;;;;;;21.26;100.00;99495.58;106912;1254;67101;-87
2023/11/04 10:22:12;;;;;;;27.80;15.30;;;;;;;21.22;100.00;99492.52;106157;1259;75014;-87
2023/11/04 10:24:44;;;;;;;29.80;17.70;;;;;;;21.24;100.00;99495.30;106175;1254;62266;-87
2023/11/04 10:27:20;;;;;;;31.80;19.40;;;;;;;21.31;100.00;99496.30;106691;1254;62798;-87
2023/11/04 10:29:53;;;;;;;37.40;19.90;;;;;;;21.13;100.00;99491.89;106345;1256;75544;-87
2023/11/04 10:32:36;;;;;;;30.50;20.30;;;;;;;20.92;100.00;99489.98;106264;1253;67563;-88
2023/11/04 10:35:12;;;;;;;51.60;26.20;;;;;;;21.09;100.00;99474.39;106141;1255;75207;-86
2023/11/04 10:37:40;;;;;;;36.10;23.10;;;;;;;21.07;100.00;99461.48;106320;1255;61231;-87
2023/11/04 10:40:10;;;;;;;29.00;18.40;;;;;;;21.14;100.00;99446.69;106910;1254;60915;-87
2023/11/04 10:42:58;;;;;;;31.70;18.90;;;;;;;21.25;100.00;99432.39;106368;1255;75101;-86
2023/11/04 10:45:41;;;;;;;32.40;19.60;;;;;;;21.41;100.00;99426.50;106096;1259;71075;-87
2023/11/04 10:48:14;;;;;;;28.50;17.20;;;;;;;21.55;100.00;99429.39;106305;1257;73834;-86
2023/11/04 10:50:44;;;;;;;29.20;18.20;;;;;;;21.53;100.00;99423.65;107363;1254;62403;-86
2023/11/04 10:53:39;;;;;;;29.40;16.80;;;;;;;21.55;100.00;99429.23;106307;1257;61323;-86
2023/11/04 10:56:20;;;;;;;29.60;18.10;;;;;;;21.40;100.00;99436.34;106521;1257;76884;-86
2023/11/04 10:59:05;;;;;;;25.90;15.70;;;;;;;21.24;100.00;99444.68;106080;1261;72175;-86
2023/11/04 11:01:37;;;;;;;26.00;16.10;;;;;;;21.23;100.00;99447.59;106655;1260;72468;-86
2023/11/04 11:04:08;;;;;;;30.10;18.10;;;;;;;21.30;100.00;99443.10;106179;1254;61292;-86
2023/11/04 11:06:51;;;;;;;25.10;14.70;;;;;;;21.38;100.00;99427.66;106198;1260;61442;-86
2023/11/04 11:09:31;;;;;;;26.80;15.20;;;;;;;21.37;100.00;99430.02;106099;1258;76636;-87
2023/11/04 11:12:15;;;;;;;25.80;15.60;;;;;;;21.39;100.00;99433.05;106368;1259;68619;-86
2023/11/04 11:14:55;;;;;;;28.80;16.70;;;;;;;21.35;100.00;99441.90;106432;1254;71465;-87
2023/11/04 11:17:36;;;;;;;31.90;20.40;;;;;;;21.33;100.00;99445.13;106275;1254;61333;-86
2023/11/04 11:20:36;;;;;;;25.20;16.10;;;;;;;21.09;100.00;99446.93;106227;1254;62906;-87
2023/11/04 11:23:17;;;;;;;25.20;15.80;;;;;;;21.16;100.00;99446.86;106899;1253;73415;-86
2023/11/04 11:26:08;;;;;;;24.90;15.50;;;;;;;21.42;100.00;99443.45;106142;1260;67300;-86
2023/11/04 11:28:42;;;;;;;26.20;16.90;;;;;;;21.41;100.00;99434.30;106282;1254;72668;-86
2023/11/04 11:31:18;;;;;;;25.10;16.60;;;;;;;21.21;100.00;99431.63;106414;1254;62187;-87
2023/11/04 11:33:55;;;;;;;27.10;16.90;;;;;;;21.14;100.00;99425.73;107090;1257;61183;-87
2023/11/04 11:36:29;;;;;;;29.60;19.70;;;;;;;21.05;100.00;99429.41;106217;1260;74705;-88
2023/11/04 11:39:02;;;;;;;32.20;17.60;;;;;;;21.19;100.00;99432.55;106206;1254;70910;-88
2023/11/04 11:41:37;;;;;;;31.00;18.80;;;;;;;21.13;100.00;99426.19;106254;1255;72104;-88
2023/11/04 11:44:12;;;;;;;27.70;18.70;;;;;;;21.22;100.00;99427.59;107059;1253;61119;-88
2023/11/04 11:46:46;;;;;;;31.10;19.40;;;;;;;21.28;100.00;99426.00;106240;1254;61406;-88
2023/11/04 11:49:20;;;;;;;36.60;22.30;;;;;;;21.35;100.00;99424.26;106220;1254;74692;-88
2023/11/04 11:51:56;;;;;;;34.20;21.90;;;;;;;21.47;100.00;99423.81;105988;1254;67232;-88
2023/11/04 11:54:30;;;;;;;39.10;24.40;;;;;;;21.62;100.00;99427.89;107260;1254;72670;-83
2023/11/04 11:57:05;;;;;;;44.20;27.40;;;;;;;21.45;100.00;99428.86;106210;1259;61311;-83
2023/11/04 11:59:39;;;;;;;37.20;23.50;;;;;;;21.30;100.00;99437.85;106359;1258;61362;-84
2023/11/04 12:02:13;;;;;;;54.50;30.00;;;;;;;21.32;100.00;99442.41;106378;1257;74648;-83
2023/11/04 12:04:47;;;;;;;49.30;28.90;;;;;;;21.40;100.00;99442.30;106596;1260;68680;-82
2023/11/04 12:07:20;;;;;;;54.40;31.90;;;;;;;21.30;100.00;99433.89;106366;1254;72715;-83
2023/11/04 12:09:54;;;;;;;47.60;28.00;;;;;;;21.38;100.00;99429.48;106333;1254;61626;-83
2023/11/04 12:12:28;;;;;;;43.30;28.50;;;;;;;21.65;100.00;99436.04;106271;1254;61186;-84
2023/11/04 12:15:02;;;;;;;45.90;28.30;;;;;;;21.76;100.00;99425.60;106982;1253;73734;-83
2023/11/04 12:17:36;;;;;;;47.00;29.70;;;;;;;21.99;100.00;99422.19;106234;1256;67437;-82
2023/11/04 12:20:10;;;;;;;45.00;25.40;;;;;;;22.24;100.00;99421.18;106247;1254;71420;-82
2023/11/04 12:22:44;;;;;;;42.50;25.80;;;;;;;22.23;100.00;99421.19;106342;1254;63069;-82
2023/11/04 12:25:18;;;;;;;46.00;26.20;;;;;;;22.30;100.00;99425.08;106615;1254;61442;-83
2023/11/04 12:27:52;;;;;;;52.00;30.10;;;;;;;22.32;100.00;99418.41;106713;1255;73918;-83
2023/11/04 12:30:26;;;;;;;61.50;33.90;;;;;;;22.33;100.00;99413.33;106076;1260;68290;-83
2023/11/04 12:33:01;;;;;;;50.60;29.90;;;;;;;22.45;100.00;99410.80;106439;1257;73778;-83
2023/11/04 12:35:35;;;;;;;49.20;29.70;;;;;;;22.62;100.00;99404.66;106468;1253;62125;-83
2023/11/04 12:38:09;;;;;;;41.20;26.10;;;;;;;22.74;100.00;99404.98;106816;1254;61150;-82
2023/11/04 12:40:43;;;;;;;39.60;25.40;;;;;;;22.68;100.00;99402.40;106410;1257;76786;-82
2023/11/04 12:43:12;;;;;;;32.90;21.30;;;;;;;22.75;100.00;99391.88;106260;1257;70569;-82
2023/11/04 12:45:46;;;;;;;38.80;24.50;;;;;;;22.82;100.00;99374.73;106297;1255;72693;-83
2023/11/04 12:48:21;;;;;;;41.60;29.60;;;;;;;22.89;100.00;99373.89;106419;1257;61330;-82
2023/11/04 12:50:54;;;;;;;42.60;26.50;;;;;;;22.86;100.00;99372.84;106522;1253;62057;-82
2023/11/04 12:53:30;;;;;;;28.50;18.20;;;;;;;22.80;100.00;99370.02;106240;1254;76701;-82
2023/11/04 12:56:08;;;;;;;29.90;18.90;;;;;;;22.88;100.00;99365.45;106322;1254;71479;-83
2023/11/04 12:58:41;;;;;;;28.80;18.90;;;;;;;22.69;100.00;99366.21;106637;1253;73366;-83
2023/11/04 13:01:15;;;;;;;27.10;16.40;;;;;;;22.21;100.00;99368.20;106210;1254;61325;-83
2023/11/04 13:03:49;;;;;;;27.50;16.10;;;;;;;21.70;100.00;99357.38;106112;1254;62042;-82
2023/11/04 13:06:23;;;;;;;23.80;14.70;;;;;;;21.44;100.00;99351.52;106285;1259;75520;-82
2023/11/04 13:08:57;;;;;;;23.90;14.20;;;;;;;21.24;100.00;99354.91;106655;1254;69440;-83
2023/11/04 13:11:31;;;;;;;20.80;13.40;;;;;;;21.13;100.00;99348.98;106241;1254;71448;-82
2023/11/04 13:14:04;;;;;;;21.20;12.70;;;;;;;21.16;100.00;99341.79;106051;1256;62171;-82
2023/11/04 13:16:41;;;;;;;24.60;15.90;;;;;;;21.14;100.00;99329.47;106236;1253;61525;-83
2023/11/04 13:19:22;;;;;;;21.30;13.40;;;;;;;21.15;100.00;99329.40;107233;1253;77235;-84
2023/11/04 13:21:56;;;;;;;20.70;12.20;;;;;;;21.17;100.00;99324.83;106742;1257;70615;-83
2023/11/04 13:24:30;;;;;;;16.40;11.20;;;;;;;21.40;100.00;99321.06;106235;1259;74823;-83
2023/11/04 13:27:04;;;;;;;20.70;13.20;;;;;;;21.25;100.00;99322.46;106899;1254;61365;-83
2023/11/04 13:29:39;;;;;;;17.10;10.60;;;;;;;21.25;100.00;99321.34;106290;1254;62370;-83
2023/11/04 13:32:19;;;;;;;18.10;11.20;;;;;;;21.25;100.00;99314.77;106214;1255;75504;-84
2023/11/04 13:34:59;;;;;;;19.10;11.90;;;;;;;21.09;100.00;99291.88;106043;1253;70486;-83
2023/11/04 13:37:39;;;;;;;18.90;11.60;;;;;;;21.12;100.00;99294.20;106684;1258;73776;-83
2023/11/04 13:40:19;;;;;;;19.90;12.10;;;;;;;21.33;100.00;99313.41;106150;1254;63126;-83
2023/11/04 13:42:59;;;;;;;21.00;12.40;;;;;;;21.29;100.00;99314.89;106405;1253;61958;-83
2023/11/04 13:45:33;;;;;;;22.90;12.80;;;;;;;21.17;100.00;99308.55;106392;1254;76578;-83
2023/11/04 13:48:14;;;;;;;22.50;13.00;;;;;;;21.10;100.00;99302.75;106701;1254;70164;-82
2023/11/04 13:50:54;;;;;;;21.80;13.90;;;;;;;21.27;100.00;99302.16;106334;1257;74965;-83
2023/11/04 13:53:34;;;;;;;25.30;13.60;;;;;;;21.45;100.00;99295.24;106249;1253;62931;-83
2023/11/04 13:56:14;;;;;;;23.10;12.50;;;;;;;21.51;100.00;99295.39;106195;1258;61385;-83
2023/11/04 13:58:54;;;;;;;21.50;12.30;;;;;;;21.52;100.00;99289.11;106684;1253;74859;-82
2023/11/04 14:01:34;;;;;;;21.80;12.10;;;;;;;21.44;100.00;99291.59;106206;1254;70609;-83
2023/11/04 14:04:14;;;;;;;18.10;11.00;;;;;;;21.33;100.00;99292.70;106211;1253;73747;-83
2023/11/04 14:06:54;;;;;;;24.80;12.80;;;;;;;21.27;100.00;99290.89;106285;1253;62126;-83
2023/11/04 14:09:35;;;;;;;22.70;13.50;;;;;;;21.23;100.00;99289.89;106567;1254;61230;-83
2023/11/04 14:12:15;;;;;;;19.80;12.70;;;;;;;21.18;100.00;99285.00;105911;1256;75715;-83
2023/11/04 14:14:55;;;;;;;28.20;14.80;;;;;;;21.33;100.00;99290.81;106111;1254;70938;-83
2023/11/04 14:17:35;;;;;;;34.20;16.30;;;;;;;21.31;100.00;99290.94;106176;1254;72278;-83
2023/11/04 14:20:15;;;;;;;29.50;16.30;;;;;;;21.11;100.00;99288.01;106358;1257;61349;-84
2023/11/04 14:22:56;;;;;;;27.60;16.40;;;;;;;21.11;100.00;99280.47;106093;1260;61219;-84
2023/11/04 14:25:36;;;;;;;28.30;16.50;;;;;;;21.20;100.00;99282.23;106360;1254;75595;-84
2023/11/04 14:28:16;;;;;;;23.20;14.90;;;;;;;21.09;100.00;99278.21;106325;1260;67178;-84
2023/11/04 14:30:56;;;;;;;25.10;13.70;;;;;;;21.09;100.00;99264.41;106557;1254;71444;-84
2023/11/04 14:33:35;;;;;;;23.00;12.20;;;;;;;21.12;100.00;99268.97;106176;1260;61662;-84
2023/11/04 14:36:17;;;;;;;28.70;16.50;;;;;;;21.05;100.00;99281.41;106339;1254;61421;-84
2023/11/04 14:38:59;;;;;;;30.00;15.70;;;;;;;21.02;100.00;99286.23;106147;1259;74646;-84
2023/11/04 14:41:39;;;;;;;30.30;17.20;;;;;;;21.06;100.00;99284.22;106928;1254;67277;-84
2023/11/04 14:44:12;;;;;;;30.60;15.70;;;;;;;21.14;100.00;99284.79;106136;1261;72679;-84
2023/11/04 14:46:46;;;;;;;24.80;13.40;;;;;;;21.15;100.00;99282.27;106238;1256;61683;-84
2023/11/04 14:49:26;;;;;;;23.00;13.60;;;;;;;21.22;100.00;99282.66;106118;1255;62133;-84
2023/11/04 14:52:07;;;;;;;21.50;12.50;;;;;;;21.09;100.00;99274.02;106378;1254;76160;-84
2023/11/04 14:54:47;;;;;;;23.40;13.70;;;;;;;21.01;100.00;99274.79;106293;1255;68397;-83
2023/11/04 14:57:27;;;;;;;28.20;14.50;;;;;;;21.09;100.00;99273.86;106177;1256;74367;-83
2023/11/04 15:00:09;;;;;;;25.90;15.80;;;;;;;21.25;100.00;99271.03;106263;1255;61275;-83
2023/11/04 15:02:51;;;;;;;33.40;17.60;;;;;;;21.39;100.00;99272.15;106400;1258;61145;-82
